createdAt,value
2023-05-22T00:00:56.338Z,101335.66
2023-05-22T00:01:58.629Z,101332.16
2023-05-22T00:03:00.868Z,101336.66
2023-05-22T00:04:03.836Z,101332.25
2023-05-22T00:05:06.965Z,101334.88
2023-05-22T00:06:10.267Z,101331.91
2023-05-22T00:07:12.295Z,101329.13
2023-05-22T00:08:14.516Z,101330.81
2023-05-22T00:09:16.774Z,101327.91
2023-05-22T00:10:19.111Z,101333.06
2023-05-22T00:11:21.316Z,101331.91
2023-05-22T00:12:23.453Z,101331.78
2023-05-22T00:13:25.536Z,101337.81
2023-05-22T00:14:27.802Z,101326.25
2023-05-22T00:15:29.818Z,101334.16
2023-05-22T00:16:32.341Z,101341.13
2023-05-22T00:17:34.617Z,101334.84
2023-05-22T00:18:36.807Z,101334.03
2023-05-22T00:19:38.925Z,101333.16
2023-05-22T00:20:42.403Z,101334.16
2023-05-22T00:21:44.779Z,101333.16
2023-05-22T00:22:48.964Z,101331.22
2023-05-22T00:23:51.080Z,101333.91
2023-05-22T00:24:53.203Z,101329.19
2023-05-22T00:25:55.374Z,101332.06
2023-05-22T00:26:57.870Z,101337.41
2023-05-22T00:27:59.928Z,101324.94
2023-05-22T00:29:02.100Z,101328.44
2023-05-22T00:30:04.446Z,101330.19
2023-05-22T00:31:09.436Z,101339.00
2023-05-22T00:32:11.777Z,101330.06
2023-05-22T00:33:13.908Z,101329.25
2023-05-22T00:34:15.961Z,101335.75
2023-05-22T00:35:18.136Z,101342.38
2023-05-22T00:36:20.261Z,101334.47
2023-05-22T00:37:22.502Z,101337.41
2023-05-22T00:38:33.379Z,101335.72
2023-05-22T00:39:35.940Z,101332.31
2023-05-22T00:40:38.315Z,101336.78
2023-05-22T00:41:40.745Z,101336.59
2023-05-22T00:42:46.091Z,101341.19
2023-05-22T00:43:48.283Z,101333.38
2023-05-22T00:44:50.372Z,101338.00
2023-05-22T00:45:54.280Z,101336.09
2023-05-22T00:47:35.103Z,101337.06
2023-05-22T00:48:37.764Z,101343.59
2023-05-22T00:49:40.057Z,101341.09
2023-05-22T00:50:43.979Z,101342.31
2023-05-22T00:51:45.762Z,101341.97
2023-05-22T00:52:47.922Z,101342.94
2023-05-22T00:53:51.402Z,101344.69
2023-05-22T00:54:54.325Z,101342.69
2023-05-22T00:55:57.581Z,101339.47
2023-05-22T00:57:01.616Z,101343.06
2023-05-22T00:58:09.244Z,101340.50
2023-05-22T00:59:11.614Z,101338.06
2023-05-22T01:00:15.386Z,101340.88
2023-05-22T01:01:18.042Z,101335.72
2023-05-22T01:02:20.765Z,101342.91
2023-05-22T01:03:27.162Z,101335.88
2023-05-22T01:04:32.920Z,101345.78
2023-05-22T01:05:34.968Z,101340.47
2023-05-22T01:06:37.551Z,101339.59
2023-05-22T01:07:39.690Z,101343.31
2023-05-22T01:08:43.184Z,101340.69
2023-05-22T01:09:45.224Z,101337.19
2023-05-22T01:10:53.075Z,101349.75
2023-05-22T01:12:07.508Z,101340.78
2023-05-22T01:13:27.470Z,101349.75
2023-05-22T01:14:53.591Z,101347.88
2023-05-22T01:16:13.415Z,101345.19
2023-05-22T01:17:16.522Z,101353.09
2023-05-22T01:18:32.717Z,101351.22
2023-05-22T01:19:54.241Z,101350.03
2023-05-22T01:21:22.355Z,101352.47
2023-05-22T01:22:32.383Z,101350.72
2023-05-22T01:24:06.723Z,101349.81
2023-05-22T01:25:33.432Z,101355.31
2023-05-22T01:26:41.684Z,101352.75
2023-05-22T01:28:01.838Z,101355.31
2023-05-22T01:29:56.206Z,101349.72
2023-05-22T01:31:11.600Z,101353.13
2023-05-22T01:32:20.182Z,101352.19
2023-05-22T01:33:26.430Z,101348.63
2023-05-22T01:34:31.932Z,101345.94
2023-05-22T01:35:37.351Z,101351.28
2023-05-22T01:36:41.963Z,101353.75
2023-05-22T01:37:44.784Z,101347.47
2023-05-22T01:38:47.628Z,101352.91
2023-05-22T01:39:51.796Z,101355.50
2023-05-22T01:40:55.419Z,101348.31
2023-05-22T01:41:58.109Z,101349.16
2023-05-22T01:43:01.146Z,101354.28
2023-05-22T01:44:03.509Z,101361.28
2023-05-22T01:45:06.385Z,101355.78
2023-05-22T01:46:08.885Z,101350.91
2023-05-22T01:47:11.004Z,101345.28
2023-05-22T01:48:13.030Z,101352.16
2023-05-22T01:49:16.403Z,101346.47
2023-05-22T01:50:18.893Z,101356.00
2023-05-22T01:51:39.134Z,101351.28
2023-05-22T01:53:06.808Z,101348.31
2023-05-22T01:54:24.451Z,101353.22
2023-05-22T01:55:40.529Z,101355.72
2023-05-22T01:56:55.207Z,101356.22
2023-05-22T01:58:26.746Z,101354.25
2023-05-22T01:59:49.840Z,101358.84
2023-05-22T02:00:54.893Z,101352.97
2023-05-22T02:02:01.133Z,101350.56
2023-05-22T02:03:09.131Z,101356.75
2023-05-22T02:04:13.802Z,101349.56
2023-05-22T02:05:20.523Z,101357.34
2023-05-22T02:06:24.255Z,101357.09
2023-05-22T02:07:27.887Z,101363.97
2023-05-22T02:08:31.359Z,101360.22
2023-05-22T02:09:35.158Z,101358.34
2023-05-22T02:10:38.292Z,101351.53
2023-05-22T02:11:41.920Z,101359.56
2023-05-22T02:12:45.074Z,101359.31
2023-05-22T02:13:47.535Z,101360.44
2023-05-22T02:14:50.560Z,101360.97
2023-05-22T02:15:53.148Z,101358.19
2023-05-22T02:16:56.962Z,101363.31
2023-05-22T02:18:00.529Z,101357.47
2023-05-22T02:19:08.812Z,101358.09
2023-05-22T02:20:15.525Z,101360.91
2023-05-22T02:21:18.111Z,101357.03
2023-05-22T02:22:20.233Z,101363.41
2023-05-22T02:23:22.628Z,101360.88
2023-05-22T02:24:24.863Z,101363.19
2023-05-22T02:25:27.106Z,101358.88
2023-05-22T02:26:29.340Z,101360.03
2023-05-22T02:27:31.625Z,101360.53
2023-05-22T02:28:33.625Z,101359.69
2023-05-22T02:29:36.012Z,101362.91
2023-05-22T02:30:38.072Z,101355.69
2023-05-22T02:31:40.687Z,101364.81
2023-05-22T02:32:43.270Z,101364.22
2023-05-22T02:33:45.488Z,101367.09
2023-05-22T02:34:48.494Z,101362.50
2023-05-22T02:35:50.682Z,101362.63
2023-05-22T02:36:52.783Z,101363.25
2023-05-22T02:37:54.973Z,101357.66
2023-05-22T02:38:56.887Z,101367.22
2023-05-22T02:39:59.394Z,101374.47
2023-05-22T02:41:01.525Z,101372.00
2023-05-22T02:42:03.934Z,101376.47
2023-05-22T02:43:06.308Z,101370.06
2023-05-22T02:44:08.445Z,101371.63
2023-05-22T02:45:10.708Z,101378.56
2023-05-22T02:46:12.874Z,101365.78
2023-05-22T02:47:15.024Z,101368.81
2023-05-22T02:48:17.149Z,101373.47
2023-05-22T02:49:19.324Z,101382.03
2023-05-22T02:50:21.475Z,101373.69
2023-05-22T02:51:23.547Z,101376.19
2023-05-22T02:52:25.688Z,101377.72
2023-05-22T02:53:28.322Z,101378.34
2023-05-22T02:54:30.537Z,101368.16
2023-05-22T02:55:32.494Z,101369.34
2023-05-22T02:56:34.654Z,101373.88
2023-05-22T02:57:36.634Z,101373.22
2023-05-22T02:58:41.980Z,101380.47
2023-05-22T02:59:44.539Z,101374.75
2023-05-22T03:00:46.662Z,101375.19
2023-05-22T03:01:48.788Z,101380.78
2023-05-22T03:02:51.110Z,101373.41
2023-05-22T03:03:55.137Z,101372.81
2023-05-22T03:04:59.219Z,101377.78
2023-05-22T03:06:02.004Z,101372.06
2023-05-22T03:07:04.473Z,101372.84
2023-05-22T03:08:06.907Z,101377.84
2023-05-22T03:09:09.153Z,101378.38
2023-05-22T03:10:11.637Z,101374.72
2023-05-22T03:11:13.710Z,101381.63
2023-05-22T03:12:15.714Z,101374.03
2023-05-22T03:13:17.798Z,101381.19
2023-05-22T03:14:20.043Z,101378.75
2023-05-22T03:15:22.175Z,101385.44
2023-05-22T03:16:25.179Z,101383.94
2023-05-22T03:17:27.346Z,101379.84
2023-05-22T03:18:29.390Z,101384.69
2023-05-22T03:19:31.747Z,101386.28
2023-05-22T03:20:34.202Z,101389.13
2023-05-22T03:21:36.947Z,101389.88
2023-05-22T03:22:39.077Z,101391.97
2023-05-22T03:23:41.290Z,101391.09
2023-05-22T03:24:43.229Z,101388.63
2023-05-22T03:25:45.300Z,101389.63
2023-05-22T03:26:47.492Z,101384.16
2023-05-22T03:27:49.604Z,101388.88
2023-05-22T03:28:51.711Z,101390.84
2023-05-22T03:29:54.010Z,101395.91
2023-05-22T03:30:55.969Z,101391.84
2023-05-22T03:31:58.413Z,101390.00
2023-05-22T03:33:00.673Z,101402.22
2023-05-22T03:34:03.280Z,101398.63
2023-05-22T03:35:06.342Z,101400.75
2023-05-22T03:36:09.996Z,101399.75
2023-05-22T03:37:11.926Z,101389.97
2023-05-22T03:38:14.014Z,101393.31
2023-05-22T03:39:16.270Z,101394.81
2023-05-22T03:40:18.336Z,101397.53
2023-05-22T03:41:21.297Z,101395.56
2023-05-22T03:42:23.349Z,101398.53
2023-05-22T03:43:25.448Z,101396.03
2023-05-22T03:44:27.848Z,101398.22
2023-05-22T03:45:30.225Z,101396.50
2023-05-22T03:46:32.368Z,101399.13
2023-05-22T03:47:34.580Z,101393.03
2023-05-22T03:48:36.905Z,101397.88
2023-05-22T03:49:39.140Z,101402.94
2023-05-22T03:50:41.503Z,101399.88
2023-05-22T03:51:43.963Z,101394.31
2023-05-22T03:52:46.495Z,101391.59
2023-05-22T03:53:48.740Z,101395.19
2023-05-22T03:54:50.750Z,101394.72
2023-05-22T03:55:53.448Z,101392.59
2023-05-22T03:56:56.353Z,101397.16
2023-05-22T03:57:58.571Z,101399.97
2023-05-22T03:59:00.828Z,101396.25
2023-05-22T04:00:10.097Z,101403.69
2023-05-22T04:01:13.937Z,101404.06
2023-05-22T04:02:16.979Z,101397.75
2023-05-22T04:03:19.931Z,101398.97
2023-05-22T04:04:22.285Z,101394.84
2023-05-22T04:05:24.797Z,101403.03
2023-05-22T04:06:27.213Z,101393.53
2023-05-22T04:07:29.238Z,101401.44
2023-05-22T04:08:31.608Z,101393.28
2023-05-22T04:09:35.703Z,101401.16
2023-05-22T04:10:39.102Z,101405.41
2023-05-22T04:11:42.497Z,101398.00
2023-05-22T04:12:44.844Z,101402.72
2023-05-22T04:13:50.118Z,101407.03
2023-05-22T04:14:52.216Z,101397.28
2023-05-22T04:15:54.334Z,101394.81
2023-05-22T04:16:56.759Z,101397.91
2023-05-22T04:17:58.766Z,101393.06
2023-05-22T04:19:04.665Z,101400.88
2023-05-22T04:20:07.892Z,101401.72
2023-05-22T04:21:10.442Z,101395.31
2023-05-22T04:22:12.499Z,101404.19
2023-05-22T04:23:14.855Z,101395.44
2023-05-22T04:24:16.924Z,101396.78
2023-05-22T04:25:18.993Z,101399.50
2023-05-22T04:26:21.078Z,101398.50
2023-05-22T04:27:23.191Z,101395.44
2023-05-22T04:28:26.866Z,101391.34
2023-05-22T04:29:29.619Z,101392.00
2023-05-22T04:30:37.825Z,101395.56
2023-05-22T04:31:40.362Z,101397.13
2023-05-22T04:32:43.686Z,101395.78
2023-05-22T04:33:48.604Z,101395.50
2023-05-22T04:34:53.621Z,101394.03
2023-05-22T04:35:55.681Z,101389.63
2023-05-22T04:36:58.424Z,101391.56
2023-05-22T04:38:03.864Z,101404.22
2023-05-22T04:39:05.845Z,101398.66
2023-05-22T04:40:10.271Z,101398.66
2023-05-22T04:41:13.687Z,101404.19
2023-05-22T04:42:16.219Z,101399.38
2023-05-22T04:43:18.915Z,101393.44
2023-05-22T04:44:23.155Z,101399.25
2023-05-22T04:45:25.513Z,101396.78
2023-05-22T04:46:28.929Z,101397.53
2023-05-22T04:47:32.101Z,101399.25
2023-05-22T04:48:37.106Z,101400.00
2023-05-22T04:49:39.464Z,101401.59
2023-05-22T04:50:41.855Z,101392.78
2023-05-22T04:51:44.067Z,101397.38
2023-05-22T04:52:47.306Z,101393.56
2023-05-22T04:53:49.998Z,101395.28
2023-05-22T04:54:52.696Z,101401.53
2023-05-22T04:55:54.999Z,101397.25
2023-05-22T04:56:57.243Z,101397.69
2023-05-22T04:57:59.939Z,101401.25
2023-05-22T04:59:02.146Z,101400.09
2023-05-22T05:00:05.564Z,101403.78
2023-05-22T05:01:09.686Z,101389.91
2023-05-22T05:02:12.095Z,101402.75
2023-05-22T05:03:14.135Z,101396.19
2023-05-22T05:04:17.882Z,101403.75
2023-05-22T05:05:20.063Z,101394.81
2023-05-22T05:06:22.199Z,101398.25
2023-05-22T05:07:25.378Z,101401.75
2023-05-22T05:08:27.485Z,101401.00
2023-05-22T05:09:29.851Z,101399.50
2023-05-22T05:10:31.918Z,101408.69
2023-05-22T05:11:34.084Z,101395.94
2023-05-22T05:12:36.277Z,101401.31
2023-05-22T05:13:38.501Z,101399.66
2023-05-22T05:14:40.588Z,101394.59
2023-05-22T05:15:42.616Z,101401.75
2023-05-22T05:16:44.732Z,101403.19
2023-05-22T05:17:47.044Z,101394.53
2023-05-22T05:18:49.159Z,101395.34
2023-05-22T05:19:51.334Z,101401.53
2023-05-22T05:20:53.941Z,101393.09
2023-05-22T05:21:55.990Z,101401.88
2023-05-22T05:22:58.192Z,101395.53
2023-05-22T05:24:00.601Z,101393.16
2023-05-22T05:25:04.216Z,101399.59
2023-05-22T05:26:06.063Z,101404.81
2023-05-22T05:27:08.068Z,101395.03
2023-05-22T05:28:13.211Z,101392.16
2023-05-22T05:29:15.258Z,101400.78
2023-05-22T05:30:20.561Z,101390.13
2023-05-22T05:31:23.079Z,101399.31
2023-05-22T05:32:25.364Z,101399.16
2023-05-22T05:33:28.029Z,101396.56
2023-05-22T05:34:30.288Z,101402.19
2023-05-22T05:35:32.752Z,101393.16
2023-05-22T05:36:35.010Z,101397.06
2023-05-22T05:37:37.078Z,101392.75
2023-05-22T05:38:39.268Z,101390.03
2023-05-22T05:39:41.408Z,101393.72
2023-05-22T05:40:45.194Z,101391.13
2023-05-22T05:41:47.214Z,101399.03
2023-05-22T05:42:49.457Z,101386.41
2023-05-22T05:43:57.552Z,101392.03
2023-05-22T05:44:59.756Z,101391.00
2023-05-22T05:46:02.000Z,101394.75
2023-05-22T05:47:04.364Z,101398.66
2023-05-22T05:48:06.968Z,101397.47
2023-05-22T05:49:12.355Z,101391.56
2023-05-22T05:50:15.945Z,101393.53
2023-05-22T05:51:18.145Z,101395.53
2023-05-22T05:52:20.244Z,101397.31
2023-05-22T05:53:22.920Z,101394.13
2023-05-22T05:54:26.585Z,101397.31
2023-05-22T05:55:28.917Z,101389.56
2023-05-22T05:56:31.192Z,101390.16
2023-05-22T05:57:33.423Z,101391.28
2023-05-22T05:58:35.410Z,101391.03
2023-05-22T05:59:38.130Z,101392.75
2023-05-22T06:00:42.529Z,101386.28
2023-05-22T06:01:49.275Z,101388.66
2023-05-22T06:02:51.451Z,101391.25
2023-05-22T06:03:53.838Z,101388.19
2023-05-22T06:04:56.244Z,101391.41
2023-05-22T06:05:59.507Z,101389.56
2023-05-22T06:07:02.053Z,101391.13
2023-05-22T06:08:06.340Z,101388.66
2023-05-22T06:09:10.373Z,101390.13
2023-05-22T06:10:13.185Z,101387.13
2023-05-22T06:11:15.216Z,101390.69
2023-05-22T06:12:17.309Z,101392.72
2023-05-22T06:13:19.472Z,101388.44
2023-05-22T06:14:21.613Z,101384.13
2023-05-22T06:15:23.689Z,101386.44
2023-05-22T06:16:26.600Z,101375.81
2023-05-22T06:17:28.644Z,101387.75
2023-05-22T06:18:31.052Z,101381.84
2023-05-22T06:19:33.098Z,101387.97
2023-05-22T06:20:35.461Z,101387.72
2023-05-22T06:21:37.509Z,101375.19
2023-05-22T06:22:39.644Z,101383.25
2023-05-22T06:23:41.812Z,101390.19
2023-05-22T06:24:43.893Z,101385.88
2023-05-22T06:25:46.050Z,101388.19
2023-05-22T06:26:48.140Z,101392.25
2023-05-22T06:27:50.192Z,101387.63
2023-05-22T06:28:52.350Z,101386.19
2023-05-22T06:29:56.342Z,101389.63
2023-05-22T06:30:58.571Z,101385.59
2023-05-22T06:32:00.986Z,101384.03
2023-05-22T06:33:04.383Z,101389.91
2023-05-22T06:34:06.703Z,101381.84
2023-05-22T06:35:10.423Z,101387.88
2023-05-22T06:36:12.482Z,101378.94
2023-05-22T06:37:14.577Z,101384.81
2023-05-22T06:38:16.728Z,101387.34
2023-05-22T06:39:19.755Z,101384.72
2023-05-22T06:40:22.265Z,101383.63
2023-05-22T06:41:24.301Z,101384.00
2023-05-22T06:42:26.330Z,101380.13
2023-05-22T06:43:28.404Z,101375.56
2023-05-22T06:44:30.643Z,101386.19
2023-05-22T06:45:32.773Z,101379.25
2023-05-22T06:46:35.040Z,101373.00
2023-05-22T06:47:37.247Z,101381.22
2023-05-22T06:48:39.198Z,101376.84
2023-05-22T06:49:41.503Z,101376.78
2023-05-22T06:50:43.564Z,101383.28
2023-05-22T06:51:46.796Z,101387.03
2023-05-22T06:52:49.457Z,101378.50
2023-05-22T06:53:51.718Z,101383.34
2023-05-22T06:54:54.239Z,101375.25
2023-05-22T06:55:57.034Z,101377.03
2023-05-22T06:56:59.768Z,101374.81
2023-05-22T06:58:02.204Z,101374.28
2023-05-22T06:59:06.238Z,101379.19
2023-05-22T07:00:12.102Z,101370.69
2023-05-22T07:01:14.381Z,101372.78
2023-05-22T07:02:16.649Z,101372.25
2023-05-22T07:03:18.832Z,101377.78
2023-05-22T07:04:20.988Z,101370.81
2023-05-22T07:05:23.036Z,101369.25
2023-05-22T07:06:25.122Z,101375.75
2023-05-22T07:07:27.175Z,101375.91
2023-05-22T07:08:30.551Z,101380.25
2023-05-22T07:09:32.803Z,101374.25
2023-05-22T07:10:35.018Z,101375.13
2023-05-22T07:11:38.081Z,101371.94
2023-05-22T07:12:42.445Z,101368.06
2023-05-22T07:13:44.578Z,101372.78
2023-05-22T07:14:46.710Z,101371.34
2023-05-22T07:15:48.741Z,101375.88
2023-05-22T07:16:51.486Z,101358.16
2023-05-22T07:17:53.761Z,101371.78
2023-05-22T07:18:55.871Z,101371.31
2023-05-22T07:19:58.438Z,101370.19
2023-05-22T07:21:00.920Z,101376.47
2023-05-22T07:22:03.029Z,101365.28
2023-05-22T07:23:05.025Z,101370.03
2023-05-22T07:24:10.068Z,101372.38
2023-05-22T07:25:12.245Z,101364.50
2023-05-22T07:26:14.343Z,101371.66
2023-05-22T07:27:16.489Z,101369.22
2023-05-22T07:28:18.722Z,101370.66
2023-05-22T07:29:22.457Z,101370.09
2023-05-22T07:30:25.312Z,101367.22
2023-05-22T07:31:27.418Z,101368.63
2023-05-22T07:32:29.702Z,101358.97
2023-05-22T07:33:31.748Z,101367.69
2023-05-22T07:34:34.559Z,101363.81
2023-05-22T07:35:36.549Z,101364.00
2023-05-22T07:36:38.895Z,101363.06
2023-05-22T07:37:41.523Z,101354.44
2023-05-22T07:38:43.754Z,101365.19
2023-05-22T07:39:47.000Z,101366.66
2023-05-22T07:40:49.152Z,101366.09
2023-05-22T07:41:51.633Z,101361.38
2023-05-22T07:42:54.462Z,101360.41
2023-05-22T07:43:56.801Z,101356.63
2023-05-22T07:44:58.858Z,101360.19
2023-05-22T07:46:00.945Z,101368.25
2023-05-22T07:47:03.641Z,101364.94
2023-05-22T07:48:06.066Z,101363.75
2023-05-22T07:49:08.395Z,101360.75
2023-05-22T07:50:10.546Z,101367.50
2023-05-22T07:51:13.857Z,101364.38
2023-05-22T07:52:16.563Z,101365.25
2023-05-22T07:53:18.854Z,101361.38
2023-05-22T07:54:20.819Z,101357.94
2023-05-22T07:55:23.156Z,101356.72
2023-05-22T07:56:25.967Z,101363.19
2023-05-22T07:57:29.979Z,101365.72
2023-05-22T07:58:34.155Z,101355.38
2023-05-22T07:59:37.888Z,101353.78
2023-05-22T08:00:39.882Z,101363.41
2023-05-22T08:01:42.310Z,101354.09
2023-05-22T08:02:45.142Z,101366.38
2023-05-22T08:03:47.469Z,101362.06
2023-05-22T08:04:50.689Z,101354.84
2023-05-22T08:05:55.595Z,101361.72
2023-05-22T08:06:57.572Z,101364.44
2023-05-22T08:07:59.724Z,101361.59
2023-05-22T08:09:02.610Z,101363.75
2023-05-22T08:10:08.533Z,101366.41
2023-05-22T08:11:10.730Z,101361.50
2023-05-22T08:12:13.252Z,101361.72
2023-05-22T08:13:16.953Z,101366.16
2023-05-22T08:14:21.765Z,101361.88
2023-05-22T08:15:23.829Z,101361.28
2023-05-22T08:16:26.198Z,101360.09
2023-05-22T08:17:28.273Z,101363.88
2023-05-22T08:18:30.597Z,101365.84
2023-05-22T08:19:33.462Z,101359.28
2023-05-22T08:20:35.722Z,101360.47
2023-05-22T08:21:37.905Z,101355.94
2023-05-22T08:22:40.629Z,101352.38
2023-05-22T08:23:42.632Z,101354.81
2023-05-22T08:24:44.900Z,101354.53
2023-05-22T08:25:46.897Z,101357.53
2023-05-22T08:26:49.070Z,101365.00
2023-05-22T08:27:51.105Z,101360.28
2023-05-22T08:28:53.156Z,101362.72
2023-05-22T08:29:55.254Z,101361.03
2023-05-22T08:30:57.358Z,101364.34
2023-05-22T08:31:59.340Z,101364.78
2023-05-22T08:33:01.729Z,101367.28
2023-05-22T08:34:04.910Z,101364.25
2023-05-22T08:35:07.529Z,101369.28
2023-05-22T08:36:09.537Z,101369.44
2023-05-22T08:37:12.797Z,101374.31
2023-05-22T08:38:15.145Z,101368.66
2023-05-22T08:39:20.239Z,101361.41
2023-05-22T08:40:22.823Z,101370.97
2023-05-22T08:41:25.032Z,101368.91
2023-05-22T08:42:27.226Z,101370.94
2023-05-22T08:43:29.747Z,101368.63
2023-05-22T08:44:31.759Z,101361.09
2023-05-22T08:45:34.764Z,101365.72
2023-05-22T08:46:41.791Z,101363.75
2023-05-22T08:47:44.967Z,101369.50
2023-05-22T08:48:48.141Z,101363.41
2023-05-22T08:49:52.167Z,101368.59
2023-05-22T08:51:01.409Z,101366.56
2023-05-22T08:52:11.626Z,101367.75
2023-05-22T08:53:15.842Z,101362.41
2023-05-22T08:54:21.945Z,101359.84
2023-05-22T08:55:24.108Z,101359.09
2023-05-22T08:56:28.668Z,101355.94
2023-05-22T08:57:33.369Z,101360.13
2023-05-22T08:58:37.687Z,101354.66
2023-05-22T08:59:41.492Z,101357.84
2023-05-22T09:00:44.562Z,101360.84
2023-05-22T09:01:47.515Z,101362.31
2023-05-22T09:02:50.103Z,101357.31
2023-05-22T09:03:52.410Z,101351.09
2023-05-22T09:04:54.467Z,101348.06
2023-05-22T09:05:56.412Z,101348.78
2023-05-22T09:07:00.202Z,101348.47
2023-05-22T09:08:16.066Z,101350.44
2023-05-22T09:09:21.626Z,101349.44
2023-05-22T09:10:23.883Z,101343.56
2023-05-22T09:11:26.461Z,101349.75
2023-05-22T09:12:28.522Z,101343.81
2023-05-22T09:13:31.997Z,101351.59
2023-05-22T09:14:42.171Z,101348.72
2023-05-22T09:15:44.577Z,101348.16
2023-05-22T09:16:52.018Z,101347.28
2023-05-22T09:17:54.088Z,101351.59
2023-05-22T09:18:57.636Z,101342.47
2023-05-22T09:20:01.326Z,101345.03
2023-05-22T09:21:08.965Z,101344.91
2023-05-22T09:22:17.728Z,101349.59
2023-05-22T09:23:20.518Z,101346.72
2023-05-22T09:24:22.755Z,101349.66
2023-05-22T09:25:26.617Z,101342.50
2023-05-22T09:26:29.689Z,101343.91
2023-05-22T09:27:32.162Z,101345.94
2023-05-22T09:28:36.274Z,101344.16
2023-05-22T09:29:51.688Z,101345.56
2023-05-22T09:30:54.897Z,101345.00
2023-05-22T09:31:59.324Z,101348.75
2023-05-22T09:33:01.561Z,101345.75
2023-05-22T09:34:04.974Z,101347.38
2023-05-22T09:35:26.130Z,101347.06
2023-05-22T09:36:33.450Z,101344.34
2023-05-22T09:37:36.663Z,101345.03
2023-05-22T09:38:39.603Z,101343.19
2023-05-22T09:39:44.025Z,101339.59
2023-05-22T09:41:04.607Z,101340.13
2023-05-22T09:42:09.495Z,101340.41
2023-05-22T09:43:12.756Z,101346.31
2023-05-22T09:44:16.536Z,101344.16
2023-05-22T09:45:26.738Z,101341.84
2023-05-22T09:46:48.172Z,101341.25
2023-05-22T09:47:51.242Z,101341.00
2023-05-22T09:48:53.904Z,101346.47
2023-05-22T09:50:15.731Z,101344.41
2023-05-22T09:51:22.282Z,101343.09
2023-05-22T09:52:24.764Z,101344.41
2023-05-22T09:53:31.222Z,101332.75
2023-05-22T09:54:34.985Z,101337.66
2023-05-22T09:55:37.329Z,101338.94
2023-05-22T09:56:42.003Z,101333.81
2023-05-22T09:57:45.221Z,101339.13
2023-05-22T09:58:48.055Z,101334.38
2023-05-22T09:59:55.148Z,101328.56
2023-05-22T10:01:17.188Z,101332.94
2023-05-22T10:02:38.390Z,101325.72
2023-05-22T10:03:43.428Z,101334.09
2023-05-22T10:05:26.034Z,101332.38
2023-05-22T10:06:46.782Z,101337.03
2023-05-22T10:07:50.407Z,101338.00
2023-05-22T10:09:02.760Z,101330.41
2023-05-22T10:10:11.615Z,101333.25
2023-05-22T10:11:14.697Z,101335.13
2023-05-22T10:12:21.328Z,101332.41
2023-05-22T10:13:25.559Z,101338.78
2023-05-22T10:14:29.036Z,101325.22
2023-05-22T10:15:32.990Z,101332.88
2023-05-22T10:16:39.895Z,101334.00
2023-05-22T10:17:42.233Z,101335.16
2023-05-22T10:19:21.529Z,101333.53
2023-05-22T10:20:25.566Z,101334.13
2023-05-22T10:21:30.169Z,101333.22
2023-05-22T10:22:51.073Z,101326.91
2023-05-22T10:24:13.527Z,101324.47
2023-05-22T10:25:16.000Z,101318.50
2023-05-22T10:26:19.242Z,101332.06
2023-05-22T10:27:21.328Z,101329.06
2023-05-22T10:28:35.783Z,101324.63
2023-05-22T10:30:03.671Z,101327.22
2023-05-22T10:31:14.952Z,101327.22
2023-05-22T10:32:35.962Z,101320.00
2023-05-22T10:33:43.609Z,101326.91
2023-05-22T10:35:20.977Z,101329.16
2023-05-22T10:36:31.851Z,101324.13
2023-05-22T10:37:36.621Z,101321.31
2023-05-22T10:38:57.380Z,101322.16
2023-05-22T10:40:08.386Z,101329.34
2023-05-22T10:41:11.342Z,101333.81
2023-05-22T10:42:33.026Z,101323.47
2023-05-22T10:43:41.577Z,101315.97
2023-05-22T10:44:43.849Z,101321.31
2023-05-22T10:45:47.364Z,101320.84
2023-05-22T10:46:50.474Z,101323.09
2023-05-22T10:48:03.727Z,101324.00
2023-05-22T10:49:05.974Z,101317.25
2023-05-22T10:50:30.079Z,101330.41
2023-05-22T10:51:34.450Z,101325.34
2023-05-22T10:52:37.172Z,101322.91
2023-05-22T10:53:41.079Z,101311.25
2023-05-22T10:54:44.749Z,101315.38
2023-05-22T10:56:10.288Z,101316.06
2023-05-22T10:57:55.504Z,101314.34
2023-05-22T11:01:17.464Z,101299.34
2023-05-22T11:02:29.607Z,101300.00
2023-05-22T11:04:00.264Z,101298.13
2023-05-22T11:05:31.397Z,101297.06
2023-05-22T11:06:45.767Z,101290.16
2023-05-22T11:08:29.451Z,101295.03
2023-05-22T11:09:47.807Z,101285.16
2023-05-22T11:10:54.663Z,101286.16
2023-05-22T11:12:28.951Z,101286.63
2023-05-22T11:13:31.544Z,101288.28
2023-05-22T11:14:33.827Z,101292.47
2023-05-22T11:15:54.184Z,101290.06
2023-05-22T11:17:00.489Z,101287.44
2023-05-22T11:18:22.220Z,101290.31
2023-05-22T11:19:24.476Z,101282.22
2023-05-22T11:20:26.812Z,101290.84
2023-05-22T11:21:48.237Z,101278.75
2023-05-22T11:22:59.504Z,101291.63
2023-05-22T11:24:02.009Z,101286.03
2023-05-22T11:25:07.433Z,101290.72
2023-05-22T11:26:37.932Z,101288.44
2023-05-22T11:27:41.512Z,101286.72
2023-05-22T11:29:02.282Z,101280.56
2023-05-22T11:30:04.908Z,101287.56
2023-05-22T11:31:09.097Z,101290.59
2023-05-22T11:32:15.456Z,101288.84
2023-05-22T11:33:18.640Z,101287.88
2023-05-22T11:34:21.461Z,101289.72
2023-05-22T11:35:23.757Z,101291.28
2023-05-22T11:36:28.656Z,101291.00
2023-05-22T11:37:33.942Z,101289.53
2023-05-22T11:38:36.239Z,101294.97
2023-05-22T11:39:38.488Z,101286.94
2023-05-22T11:40:40.690Z,101288.09
2023-05-22T11:41:43.286Z,101288.09
2023-05-22T11:42:45.427Z,101282.63
2023-05-22T11:43:47.556Z,101282.50
2023-05-22T11:44:49.706Z,101291.69
2023-05-22T11:45:51.837Z,101279.47
2023-05-22T11:46:54.608Z,101275.63
2023-05-22T11:47:57.329Z,101278.53
2023-05-22T11:48:59.398Z,101283.69
2023-05-22T11:50:02.191Z,101271.75
2023-05-22T11:51:04.708Z,101277.19
2023-05-22T11:52:06.992Z,101271.16
2023-05-22T11:53:09.084Z,101275.84
2023-05-22T11:54:11.412Z,101274.56
2023-05-22T11:55:13.430Z,101262.00
2023-05-22T11:56:15.772Z,101275.25
2023-05-22T11:57:17.700Z,101262.84
2023-05-22T11:58:28.319Z,101273.75
2023-05-22T11:59:30.254Z,101263.84
2023-05-22T12:00:32.750Z,101272.25
2023-05-22T12:01:36.529Z,101267.78
2023-05-22T12:02:39.415Z,101271.53
2023-05-22T12:03:42.243Z,101272.84
2023-05-22T12:04:44.542Z,101263.25
2023-05-22T12:05:47.338Z,101271.78
2023-05-22T12:06:49.755Z,101265.31
2023-05-22T12:07:52.059Z,101272.91
2023-05-22T12:08:54.787Z,101265.88
2023-05-22T12:09:57.942Z,101272.06
2023-05-22T12:11:00.333Z,101266.31
2023-05-22T12:12:02.427Z,101263.53
2023-05-22T12:13:04.686Z,101260.94
2023-05-22T12:14:06.690Z,101263.94
2023-05-22T12:15:09.655Z,101269.22
2023-05-22T12:16:25.315Z,101271.38
2023-05-22T12:17:29.120Z,101270.81
2023-05-22T12:18:39.621Z,101268.91
2023-05-22T12:19:42.717Z,101267.91
2023-05-22T12:20:45.012Z,101265.59
2023-05-22T12:21:49.424Z,101261.63
2023-05-22T12:22:51.525Z,101271.53